sensor_id;sensor_type;location;lat;lon;timestamp;pressure;altitude;pressure_sealevel;temperature;humidity
73240;BME280;61452;40.054;4.110;2023-07-31T00:02:38;101876.38;;;27.85;100.00
73240;BME280;61452;40.054;4.110;2023-07-31T00:07:40;101871.31;;;27.82;100.00
73240;BME280;61452;40.054;4.110;2023-07-31T00:12:44;101863.72;;;27.77;100.00
73240;BME280;61452;40.054;4.110;2023-07-31T00:17:48;101853.94;;;27.76;100.00
73240;BME280;61452;40.054;4.110;2023-07-31T00:22:52;101849.84;;;27.72;100.00
73240;BME280;61452;40.054;4.110;2023-07-31T00:27:54;101850.56;;;27.74;100.00
73240;BME280;61452;40.054;4.110;2023-07-31T00:32:57;101850.03;;;27.70;100.00
73240;BME280;61452;40.054;4.110;2023-07-31T00:37:59;101846.66;;;27.68;100.00
73240;BME280;61452;40.054;4.110;2023-07-31T00:43:01;101849.19;;;27.70;100.00
73240;BME280;61452;40.054;4.110;2023-07-31T00:48:06;101836.72;;;27.69;100.00
73240;BME280;61452;40.054;4.110;2023-07-31T00:53:10;101843.78;;;27.70;100.00
73240;BME280;61452;40.054;4.110;2023-07-31T00:58:13;101847.50;;;27.69;100.00
73240;BME280;61452;40.054;4.110;2023-07-31T01:03:15;101838.22;;;27.71;100.00
73240;BME280;61452;40.054;4.110;2023-07-31T01:08:32;101842.78;;;27.71;100.00
73240;BME280;61452;40.054;4.110;2023-07-31T01:13:38;101848.00;;;27.72;100.00
73240;BME280;61452;40.054;4.110;2023-07-31T01:18:40;101843.59;;;27.71;100.00
73240;BME280;61452;40.054;4.110;2023-07-31T01:29:50;101827.28;;;27.73;100.00
73240;BME280;61452;40.054;4.110;2023-07-31T01:34:33;101838.41;;;27.70;100.00
73240;BME280;61452;40.054;4.110;2023-07-31T01:39:38;101839.56;;;27.67;100.00
73240;BME280;61452;40.054;4.110;2023-07-31T01:44:41;101829.31;;;27.71;100.00
73240;BME280;61452;40.054;4.110;2023-07-31T01:49:44;101824.06;;;27.69;100.00
73240;BME280;61452;40.054;4.110;2023-07-31T01:54:47;101825.59;;;27.72;100.00
73240;BME280;61452;40.054;4.110;2023-07-31T01:59:50;101822.22;;;27.70;100.00
73240;BME280;61452;40.054;4.110;2023-07-31T02:04:55;101822.53;;;27.67;100.00
73240;BME280;61452;40.054;4.110;2023-07-31T02:09:57;101823.38;;;27.67;100.00
73240;BME280;61452;40.054;4.110;2023-07-31T02:14:59;101826.91;;;27.68;100.00
73240;BME280;61452;40.054;4.110;2023-07-31T02:20:01;101824.38;;;27.66;100.00
73240;BME280;61452;40.054;4.110;2023-07-31T02:25:04;101826.91;;;27.68;100.00
73240;BME280;61452;40.054;4.110;2023-07-31T02:30:07;101816.47;;;27.65;100.00
73240;BME280;61452;40.054;4.110;2023-07-31T02:35:10;101817.47;;;27.64;100.00
73240;BME280;61452;40.054;4.110;2023-07-31T02:40:13;101816.28;;;27.66;100.00
73240;BME280;61452;40.054;4.110;2023-07-31T02:45:15;101810.06;;;27.66;100.00
73240;BME280;61452;40.054;4.110;2023-07-31T02:50:19;101810.59;;;27.69;100.00
73240;BME280;61452;40.054;4.110;2023-07-31T02:55:23;101810.06;;;27.66;100.00
73240;BME280;61452;40.054;4.110;2023-07-31T03:00:25;101813.59;;;27.66;100.00
73240;BME280;61452;40.054;4.110;2023-07-31T03:05:27;101807.69;;;27.63;100.00
73240;BME280;61452;40.054;4.110;2023-07-31T03:10:30;101801.59;;;27.61;100.00
73240;BME280;61452;40.054;4.110;2023-07-31T03:15:32;101806.47;;;27.57;100.00
73240;BME280;61452;40.054;4.110;2023-07-31T03:20:36;101800.75;;;27.60;100.00
73240;BME280;61452;40.054;4.110;2023-07-31T03:25:41;101794.69;;;27.58;100.00
73240;BME280;61452;40.054;4.110;2023-07-31T03:30:57;101794.16;;;27.55;100.00
73240;BME280;61452;40.054;4.110;2023-07-31T03:35:59;101792.00;;;27.58;100.00
73240;BME280;61452;40.054;4.110;2023-07-31T03:41:01;101800.25;;;27.57;100.00
73240;BME280;61452;40.054;4.110;2023-07-31T03:46:04;101800.56;;;27.54;100.00
73240;BME280;61452;40.054;4.110;2023-07-31T03:51:06;101804.63;;;27.58;100.00
73240;BME280;61452;40.054;4.110;2023-07-31T03:56:11;101809.34;;;27.56;100.00
73240;BME280;61452;40.054;4.110;2023-07-31T04:01:13;101810.34;;;27.55;100.00
73240;BME280;61452;40.054;4.110;2023-07-31T04:06:16;101813.88;;;27.55;100.00
73240;BME280;61452;40.054;4.110;2023-07-31T04:11:21;101815.03;;;27.53;100.00
73240;BME280;61452;40.054;4.110;2023-07-31T04:16:23;101815.88;;;27.53;100.00
73240;BME280;61452;40.054;4.110;2023-07-31T04:21:25;101822.81;;;27.56;100.00
73240;BME280;61452;40.054;4.110;2023-07-31T04:26:28;101828.06;;;27.57;100.00
73240;BME280;61452;40.054;4.110;2023-07-31T04:31:30;101822.81;;;27.56;100.00
73240;BME280;61452;40.054;4.110;2023-07-31T04:36:33;101831.19;;;27.53;100.00
73240;BME280;61452;40.054;4.110;2023-07-31T04:41:36;101826.66;;;27.53;100.00
73240;BME280;61452;40.054;4.110;2023-07-31T04:46:38;101825.00;;;27.52;100.00
73240;BME280;61452;40.054;4.110;2023-07-31T04:51:40;101825.00;;;27.52;100.00
73240;BME280;61452;40.054;4.110;2023-07-31T04:56:43;101829.34;;;27.53;100.00
73240;BME280;61452;40.054;4.110;2023-07-31T05:01:45;101822.13;;;27.54;100.00
73240;BME280;61452;40.054;4.110;2023-07-31T05:06:47;101817.72;;;27.53;100.00
73240;BME280;61452;40.054;4.110;2023-07-31T05:11:49;101832.06;;;27.53;100.00
73240;BME280;61452;40.054;4.110;2023-07-31T05:16:51;101824.41;;;27.49;100.00
73240;BME280;61452;40.054;4.110;2023-07-31T05:21:54;101824.25;;;27.50;100.00
73240;BME280;61452;40.054;4.110;2023-07-31T05:26:56;101816.66;;;27.46;100.00
73240;BME280;61452;40.054;4.110;2023-07-31T05:31:58;101821.84;;;27.39;100.00
73240;BME280;61452;40.054;4.110;2023-07-31T05:37:01;101815.75;;;27.37;100.00
73240;BME280;61452;40.054;4.110;2023-07-31T05:42:03;101820.44;;;27.35;100.00
73240;BME280;61452;40.054;4.110;2023-07-31T05:47:06;101830.72;;;27.31;100.00
73240;BME280;61452;40.054;4.110;2023-07-31T05:52:08;101836.94;;;27.32;100.00
73240;BME280;61452;40.054;4.110;2023-07-31T05:57:10;101838.28;;;27.28;100.00
73240;BME280;61452;40.054;4.110;2023-07-31T06:02:12;101836.41;;;27.28;100.00
73240;BME280;61452;40.054;4.110;2023-07-31T06:07:15;101844.66;;;27.27;100.00
73240;BME280;61452;40.054;4.110;2023-07-31T06:12:17;101849.50;;;27.23;100.00
73240;BME280;61452;40.054;4.110;2023-07-31T06:17:20;101849.06;;;27.28;100.00
73240;BME280;61452;40.054;4.110;2023-07-31T06:22:23;101848.88;;;27.29;100.00
73240;BME280;61452;40.054;4.110;2023-07-31T06:27:25;101856.44;;;27.26;100.00
73240;BME280;61452;40.054;4.110;2023-07-31T06:32:27;101854.03;;;27.23;100.00
73240;BME280;61452;40.054;4.110;2023-07-31T06:37:30;101861.97;;;27.24;100.00
73240;BME280;61452;40.054;4.110;2023-07-31T06:42:32;101855.88;;;27.22;100.00
73240;BME280;61452;40.054;4.110;2023-07-31T06:47:34;101862.97;;;27.23;100.00
73240;BME280;61452;40.054;4.110;2023-07-31T06:52:36;101859.63;;;27.21;100.00
73240;BME280;61452;40.054;4.110;2023-07-31T06:57:38;101861.84;;;27.08;100.00
73240;BME280;61452;40.054;4.110;2023-07-31T07:02:40;101862.53;;;27.10;100.00
73240;BME280;61452;40.054;4.110;2023-07-31T07:07:43;101863.38;;;27.11;100.00
73240;BME280;61452;40.054;4.110;2023-07-31T07:12:45;101868.75;;;27.11;100.00
73240;BME280;61452;40.054;4.110;2023-07-31T07:17:47;101873.16;;;27.12;100.00
73240;BME280;61452;40.054;4.110;2023-07-31T07:22:50;101866.25;;;27.09;100.00
73240;BME280;61452;40.054;4.110;2023-07-31T07:27:52;101869.94;;;27.08;100.00
73240;BME280;61452;40.054;4.110;2023-07-31T07:32:54;101859.47;;;27.05;100.00
73240;BME280;61452;40.054;4.110;2023-07-31T07:37:56;101871.09;;;27.06;100.00
73240;BME280;61452;40.054;4.110;2023-07-31T07:42:58;101876.16;;;27.09;100.00
73240;BME280;61452;40.054;4.110;2023-07-31T07:48:02;101871.47;;;27.11;100.00
73240;BME280;61452;40.054;4.110;2023-07-31T07:53:04;101875.00;;;27.11;100.00
73240;BME280;61452;40.054;4.110;2023-07-31T07:58:08;101869.75;;;27.10;100.00
73240;BME280;61452;40.054;4.110;2023-07-31T08:03:10;101871.63;;;27.09;100.00
73240;BME280;61452;40.054;4.110;2023-07-31T08:08:15;101867.06;;;27.10;100.00
73240;BME280;61452;40.054;4.110;2023-07-31T08:13:21;101872.84;;;27.15;100.00
73240;BME280;61452;40.054;4.110;2023-07-31T08:18:23;101870.59;;;27.10;100.00
73240;BME280;61452;40.054;4.110;2023-07-31T08:23:25;101878.41;;;27.13;100.00
73240;BME280;61452;40.054;4.110;2023-07-31T08:28:27;101878.63;;;27.20;100.00
73240;BME280;61452;40.054;4.110;2023-07-31T08:33:30;101875.81;;;27.29;100.00
73240;BME280;61452;40.054;4.110;2023-07-31T08:38:32;101881.22;;;27.29;100.00
73240;BME280;61452;40.054;4.110;2023-07-31T08:43:36;101883.13;;;27.37;100.00
73240;BME280;61452;40.054;4.110;2023-07-31T08:48:42;101885.03;;;27.45;100.00
73240;BME280;61452;40.054;4.110;2023-07-31T08:53:44;101882.50;;;27.43;100.00
73240;BME280;61452;40.054;4.110;2023-07-31T08:58:47;101895.06;;;27.52;100.00
73240;BME280;61452;40.054;4.110;2023-07-31T09:03:51;101881.03;;;27.49;100.00
73240;BME280;61452;40.054;4.110;2023-07-31T09:08:54;101874.88;;;27.56;100.00
73240;BME280;61452;40.054;4.110;2023-07-31T09:13:57;101884.81;;;27.56;100.00
73240;BME280;61452;40.054;4.110;2023-07-31T09:19:00;101878.94;;;27.60;100.00
73240;BME280;61452;40.054;4.110;2023-07-31T09:24:04;101870.34;;;27.57;100.00
73240;BME280;61452;40.054;4.110;2023-07-31T09:29:18;101872.41;;;27.63;100.00
73240;BME280;61452;40.054;4.110;2023-07-31T09:34:28;101873.09;;;27.65;100.00
73240;BME280;61452;40.054;4.110;2023-07-31T09:39:31;101872.06;;;27.66;100.00
73240;BME280;61452;40.054;4.110;2023-07-31T09:44:40;101875.31;;;27.69;100.00
73240;BME280;61452;40.054;4.110;2023-07-31T09:49:45;101864.03;;;27.74;100.00
73240;BME280;61452;40.054;4.110;2023-07-31T09:54:48;101862.19;;;27.74;100.00
73240;BME280;61452;40.054;4.110;2023-07-31T09:59:52;101869.56;;;27.72;100.00
73240;BME280;61452;40.054;4.110;2023-07-31T10:04:56;101865.72;;;27.75;100.00
73240;BME280;61452;40.054;4.110;2023-07-31T10:10:00;101864.03;;;27.74;100.00
73240;BME280;61452;40.054;4.110;2023-07-31T10:15:06;101871.13;;;27.75;100.00
73240;BME280;61452;40.054;4.110;2023-07-31T10:20:08;101864.38;;;27.71;100.00
73240;BME280;61452;40.054;4.110;2023-07-31T10:25:12;101860.63;;;27.72;100.00
73240;BME280;61452;40.054;4.110;2023-07-31T10:30:19;101860.34;;;27.75;100.00
73240;BME280;61452;40.054;4.110;2023-07-31T10:35:22;101854.59;;;27.78;100.00
73240;BME280;61452;40.054;4.110;2023-07-31T10:40:26;101858.84;;;27.81;100.00
73240;BME280;61452;40.054;4.110;2023-07-31T10:45:32;101858.50;;;27.84;100.00
73240;BME280;61452;40.054;4.110;2023-07-31T10:50:45;101862.59;;;27.88;100.00
73240;BME280;61452;40.054;4.110;2023-07-31T10:55:49;101855.50;;;27.87;100.00
73240;BME280;61452;40.054;4.110;2023-07-31T11:01:01;101855.84;;;27.92;100.00
73240;BME280;61452;40.054;4.110;2023-07-31T11:06:05;101851.00;;;27.95;100.00
73240;BME280;61452;40.054;4.110;2023-07-31T11:11:09;101846.47;;;27.96;100.00
73240;BME280;61452;40.054;4.110;2023-07-31T11:16:13;101848.13;;;27.97;100.00
73240;BME280;61452;40.054;4.110;2023-07-31T11:21:26;101845.44;;;27.97;100.00
73240;BME280;61452;40.054;4.110;2023-07-31T11:26:28;101836.50;;;27.96;100.00
73240;BME280;61452;40.054;4.110;2023-07-31T11:31:30;101834.47;;;27.98;100.00
73240;BME280;61452;40.054;4.110;2023-07-31T11:36:32;101830.63;;;28.01;100.00
73240;BME280;61452;40.054;4.110;2023-07-31T11:41:35;101831.13;;;28.04;100.00
73240;BME280;61452;40.054;4.110;2023-07-31T11:46:37;101825.91;;;28.03;100.00
73240;BME280;61452;40.054;4.110;2023-07-31T11:51:41;101816.66;;;28.05;100.00
73240;BME280;61452;40.054;4.110;2023-07-31T11:56:43;101818.34;;;28.06;100.00
73240;BME280;61452;40.054;4.110;2023-07-31T12:01:46;101808.22;;;28.08;100.00
73240;BME280;61452;40.054;4.110;2023-07-31T12:06:48;101799.09;;;28.09;100.00
73240;BME280;61452;40.054;4.110;2023-07-31T12:11:52;101786.47;;;28.10;100.00
73240;BME280;61452;40.054;4.110;2023-07-31T12:17:04;101783.94;;;28.08;100.00
73240;BME280;61452;40.054;4.110;2023-07-31T12:22:15;101782.59;;;28.12;100.00
73240;BME280;61452;40.054;4.110;2023-07-31T12:27:18;101783.47;;;28.13;100.00
73240;BME280;61452;40.054;4.110;2023-07-31T12:32:24;101778.06;;;28.13;100.00
73240;BME280;61452;40.054;4.110;2023-07-31T12:37:28;101776.75;;;28.17;100.00
73240;BME280;61452;40.054;4.110;2023-07-31T12:42:31;101774.38;;;28.22;100.00
73240;BME280;61452;40.054;4.110;2023-07-31T12:47:33;101766.97;;;28.24;100.00
73240;BME280;61452;40.054;4.110;2023-07-31T12:52:35;101767.13;;;28.23;100.00
73240;BME280;61452;40.054;4.110;2023-07-31T12:57:37;101753.00;;;28.21;100.00
73240;BME280;61452;40.054;4.110;2023-07-31T13:02:39;101751.09;;;28.13;100.00
73240;BME280;61452;40.054;4.110;2023-07-31T13:07:42;101747.84;;;28.09;100.00
73240;BME280;61452;40.054;4.110;2023-07-31T13:12:44;101740.44;;;28.11;100.00
73240;BME280;61452;40.054;4.110;2023-07-31T13:17:46;101739.94;;;28.08;100.00
73240;BME280;61452;40.054;4.110;2023-07-31T13:22:48;101740.75;;;28.08;100.00
73240;BME280;61452;40.054;4.110;2023-07-31T13:27:51;101734.00;;;28.04;100.00
73240;BME280;61452;40.054;4.110;2023-07-31T13:32:53;101737.72;;;28.03;100.00
73240;BME280;61452;40.054;4.110;2023-07-31T13:37:55;101737.72;;;28.03;100.00
73240;BME280;61452;40.054;4.110;2023-07-31T13:42:58;101733.16;;;28.04;100.00
73240;BME280;61452;40.054;4.110;2023-07-31T13:48:00;101727.13;;;28.02;100.00
73240;BME280;61452;40.054;4.110;2023-07-31T13:53:02;101714.78;;;27.99;100.00
73240;BME280;61452;40.054;4.110;2023-07-31T13:58:04;101705.69;;;28.00;100.00
73240;BME280;61452;40.054;4.110;2023-07-31T14:03:06;101704.16;;;27.98;100.00
73240;BME280;61452;40.054;4.110;2023-07-31T14:08:09;101693.06;;;28.01;100.00
73240;BME280;61452;40.054;4.110;2023-07-31T14:13:11;101693.06;;;28.01;100.00
73240;BME280;61452;40.054;4.110;2023-07-31T14:18:13;101690.34;;;28.01;100.00
73240;BME280;61452;40.054;4.110;2023-07-31T14:23:16;101689.34;;;28.02;100.00
73240;BME280;61452;40.054;4.110;2023-07-31T14:28:18;101689.50;;;28.00;100.00
73240;BME280;61452;40.054;4.110;2023-07-31T14:33:21;101687.66;;;28.01;100.00
73240;BME280;61452;40.054;4.110;2023-07-31T14:38:23;101690.34;;;28.01;100.00
73240;BME280;61452;40.054;4.110;2023-07-31T14:43:25;101679.72;;;27.99;100.00
73240;BME280;61452;40.054;4.110;2023-07-31T14:48:27;101673.47;;;27.99;100.00
73240;BME280;61452;40.054;4.110;2023-07-31T14:53:31;101673.31;;;28.08;100.00
73240;BME280;61452;40.054;4.110;2023-07-31T14:58:33;101669.81;;;28.16;100.00
73240;BME280;61452;40.054;4.110;2023-07-31T15:03:35;101670.50;;;28.18;100.00
73240;BME280;61452;40.054;4.110;2023-07-31T15:08:37;101666.13;;;28.25;100.00
73240;BME280;61452;40.054;4.110;2023-07-31T15:13:39;101663.59;;;28.24;100.00
73240;BME280;61452;40.054;4.110;2023-07-31T15:18:42;101650.28;;;28.30;100.00
73240;BME280;61452;40.054;4.110;2023-07-31T15:23:44;101661.22;;;28.29;100.00
73240;BME280;61452;40.054;4.110;2023-07-31T15:28:49;101656.00;;;28.27;100.00
73240;BME280;61452;40.054;4.110;2023-07-31T15:33:51;101647.91;;;28.27;100.00
73240;BME280;61452;40.054;4.110;2023-07-31T15:38:53;101646.88;;;28.28;100.00
73240;BME280;61452;40.054;4.110;2023-07-31T15:43:56;101631.69;;;28.27;100.00
73240;BME280;61452;40.054;4.110;2023-07-31T15:48:58;101631.53;;;28.29;100.00
73240;BME280;61452;40.054;4.110;2023-07-31T15:54:04;101621.28;;;28.32;100.00
73240;BME280;61452;40.054;4.110;2023-07-31T15:59:06;101621.59;;;28.29;100.00
73240;BME280;61452;40.054;4.110;2023-07-31T16:04:08;101612.13;;;28.33;100.00
73240;BME280;61452;40.054;4.110;2023-07-31T16:09:10;101605.56;;;28.36;100.00
73240;BME280;61452;40.054;4.110;2023-07-31T16:14:13;101597.81;;;28.33;100.00
73240;BME280;61452;40.054;4.110;2023-07-31T16:19:15;101602.03;;;28.35;100.00
73240;BME280;61452;40.054;4.110;2023-07-31T16:24:17;101597.97;;;28.39;100.00
73240;BME280;61452;40.054;4.110;2023-07-31T16:29:19;101598.63;;;28.41;100.00
73240;BME280;61452;40.054;4.110;2023-07-31T16:34:21;101583.97;;;28.36;100.00
73240;BME280;61452;40.054;4.110;2023-07-31T16:39:26;101573.66;;;28.39;100.00
73240;BME280;61452;40.054;4.110;2023-07-31T16:44:29;101563.22;;;28.36;100.00
73240;BME280;61452;40.054;4.110;2023-07-31T16:49:31;101567.78;;;28.36;100.00
73240;BME280;61452;40.054;4.110;2023-07-31T16:54:34;101572.16;;;28.37;100.00
73240;BME280;61452;40.054;4.110;2023-07-31T16:59:36;101571.66;;;28.33;100.00
73240;BME280;61452;40.054;4.110;2023-07-31T17:04:38;101560.38;;;28.30;100.00
73240;BME280;61452;40.054;4.110;2023-07-31T17:09:40;101557.00;;;28.36;100.00
73240;BME280;61452;40.054;4.110;2023-07-31T17:14:43;101551.09;;;28.32;100.00
73240;BME280;61452;40.054;4.110;2023-07-31T17:19:45;101550.91;;;28.34;100.00
73240;BME280;61452;40.054;4.110;2023-07-31T17:24:47;101550.22;;;28.40;100.00
73240;BME280;61452;40.054;4.110;2023-07-31T17:29:50;101546.50;;;28.41;100.00
73240;BME280;61452;40.054;4.110;2023-07-31T17:34:52;101552.28;;;28.38;100.00
73240;BME280;61452;40.054;4.110;2023-07-31T17:39:54;101554.97;;;28.30;100.00
73240;BME280;61452;40.054;4.110;2023-07-31T17:44:57;101553.13;;;28.22;100.00
73240;BME280;61452;40.054;4.110;2023-07-31T17:49:59;101547.91;;;28.21;100.00
73240;BME280;61452;40.054;4.110;2023-07-31T17:55:02;101554.66;;;28.16;100.00
73240;BME280;61452;40.054;4.110;2023-07-31T18:00:05;101539.81;;;28.21;100.00
73240;BME280;61452;40.054;4.110;2023-07-31T18:05:07;101543.00;;;28.16;100.00
73240;BME280;61452;40.054;4.110;2023-07-31T18:10:09;101540.16;;;28.17;100.00
73240;BME280;61452;40.054;4.110;2023-07-31T18:15:12;101524.97;;;28.16;100.00
73240;BME280;61452;40.054;4.110;2023-07-31T18:20:14;101531.22;;;28.17;100.00
73240;BME280;61452;40.054;4.110;2023-07-31T18:25:16;101526.66;;;28.17;100.00
73240;BME280;61452;40.054;4.110;2023-07-31T18:30:19;101528.50;;;28.17;100.00
73240;BME280;61452;40.054;4.110;2023-07-31T18:35:21;101532.22;;;28.16;100.00
73240;BME280;61452;40.054;4.110;2023-07-31T18:40:24;101534.25;;;28.14;100.00
73240;BME280;61452;40.054;4.110;2023-07-31T18:45:26;101532.38;;;28.14;100.00
73240;BME280;61452;40.054;4.110;2023-07-31T18:50:28;101540.16;;;28.17;100.00
73240;BME280;61452;40.054;4.110;2023-07-31T18:55:30;101541.00;;;28.18;100.00
73240;BME280;61452;40.054;4.110;2023-07-31T19:00:32;101543.53;;;28.20;100.00
73240;BME280;61452;40.054;4.110;2023-07-31T19:05:34;101545.88;;;28.14;100.00
73240;BME280;61452;40.054;4.110;2023-07-31T19:10:37;101546.91;;;28.13;100.00
73240;BME280;61452;40.054;4.110;2023-07-31T19:15:39;101547.75;;;28.14;100.00
73240;BME280;61452;40.054;4.110;2023-07-31T19:20:41;101556.66;;;28.14;100.00
73240;BME280;61452;40.054;4.110;2023-07-31T19:25:44;101550.25;;;28.15;100.00
73240;BME280;61452;40.054;4.110;2023-07-31T19:30:46;101546.56;;;28.16;100.00
73240;BME280;61452;40.054;4.110;2023-07-31T19:35:59;101544.22;;;28.13;100.00
73240;BME280;61452;40.054;4.110;2023-07-31T19:41:02;101548.41;;;28.16;100.00
73240;BME280;61452;40.054;4.110;2023-07-31T19:46:05;101546.34;;;28.10;100.00
73240;BME280;61452;40.054;4.110;2023-07-31T19:51:07;101544.34;;;28.12;100.00
73240;BME280;61452;40.054;4.110;2023-07-31T19:56:09;101554.63;;;28.08;100.00
73240;BME280;61452;40.054;4.110;2023-07-31T20:01:11;101556.66;;;28.06;100.00
73240;BME280;61452;40.054;4.110;2023-07-31T20:06:13;101550.41;;;28.06;100.00
73240;BME280;61452;40.054;4.110;2023-07-31T20:11:16;101561.22;;;28.06;100.00
73240;BME280;61452;40.054;4.110;2023-07-31T20:16:18;101557.81;;;28.04;100.00
73240;BME280;61452;40.054;4.110;2023-07-31T20:21:20;101559.03;;;28.01;100.00
73240;BME280;61452;40.054;4.110;2023-07-31T20:26:22;101549.72;;;28.04;100.00
73240;BME280;61452;40.054;4.110;2023-07-31T20:31:25;101545.34;;;28.03;100.00
73240;BME280;61452;40.054;4.110;2023-07-31T20:36:27;101552.59;;;28.10;100.00
73240;BME280;61452;40.054;4.110;2023-07-31T20:41:29;101554.13;;;28.13;100.00
73240;BME280;61452;40.054;4.110;2023-07-31T20:46:31;101559.88;;;28.18;100.00
73240;BME280;61452;40.054;4.110;2023-07-31T20:51:33;101563.06;;;28.22;100.00
73240;BME280;61452;40.054;4.110;2023-07-31T20:56:37;101575.56;;;28.23;100.00
73240;BME280;61452;40.054;4.110;2023-07-31T21:01:40;101583.00;;;28.21;100.00
73240;BME280;61452;40.054;4.110;2023-07-31T21:06:44;101578.94;;;28.25;100.00
73240;BME280;61452;40.054;4.110;2023-07-31T21:11:46;101582.13;;;28.28;100.00
73240;BME280;61452;40.054;4.110;2023-07-31T21:16:48;101584.16;;;28.26;100.00
73240;BME280;61452;40.054;4.110;2023-07-31T21:21:50;101586.34;;;28.31;100.00
73240;BME280;61452;40.054;4.110;2023-07-31T21:26:53;101583.66;;;28.31;100.00
73240;BME280;61452;40.054;4.110;2023-07-31T21:31:55;101589.53;;;28.34;100.00
73240;BME280;61452;40.054;4.110;2023-07-31T21:36:58;101576.25;;;28.33;100.00
73240;BME280;61452;40.054;4.110;2023-07-31T21:42:01;101576.25;;;28.33;100.00
73240;BME280;61452;40.054;4.110;2023-07-31T21:47:03;101562.53;;;28.34;100.00
73240;BME280;61452;40.054;4.110;2023-07-31T21:52:06;101562.22;;;28.29;100.00
73240;BME280;61452;40.054;4.110;2023-07-31T21:57:08;101569.16;;;28.32;100.00
73240;BME280;61452;40.054;4.110;2023-07-31T22:02:11;101570.84;;;28.33;100.00
73240;BME280;61452;40.054;4.110;2023-07-31T22:07:13;101559.69;;;28.36;100.00
73240;BME280;61452;40.054;4.110;2023-07-31T22:12:15;101561.38;;;28.37;100.00
73240;BME280;61452;40.054;4.110;2023-07-31T22:17:17;101565.44;;;28.33;100.00
73240;BME280;61452;40.054;4.110;2023-07-31T22:22:20;101561.06;;;28.24;100.00
73240;BME280;61452;40.054;4.110;2023-07-31T22:27:22;101547.19;;;28.10;100.00
73240;BME280;61452;40.054;4.110;2023-07-31T22:32:24;101542.31;;;28.06;100.00
73240;BME280;61452;40.054;4.110;2023-07-31T22:37:26;101545.03;;;28.06;100.00
73240;BME280;61452;40.054;4.110;2023-07-31T22:42:28;101543.00;;;28.08;100.00
73240;BME280;61452;40.054;4.110;2023-07-31T22:47:31;101539.28;;;28.09;100.00
73240;BME280;61452;40.054;4.110;2023-07-31T22:52:33;101536.09;;;28.05;100.00
73240;BME280;61452;40.054;4.110;2023-07-31T22:57:35;101533.03;;;28.08;100.00
73240;BME280;61452;40.054;4.110;2023-07-31T23:02:38;101527.66;;;28.00;100.00
73240;BME280;61452;40.054;4.110;2023-07-31T23:07:40;101534.41;;;28.04;100.00
73240;BME280;61452;40.054;4.110;2023-07-31T23:12:42;101528.16;;;28.04;100.00
73240;BME280;61452;40.054;4.110;2023-07-31T23:17:44;101522.09;;;28.02;100.00
73240;BME280;61452;40.054;4.110;2023-07-31T23:22:47;101522.44;;;27.99;100.00
73240;BME280;61452;40.054;4.110;2023-07-31T23:27:49;101513.34;;;28.00;100.00
73240;BME280;61452;40.054;4.110;2023-07-31T23:32:51;101507.94;;;28.00;100.00
73240;BME280;61452;40.054;4.110;2023-07-31T23:37:54;101506.94;;;28.01;100.00
73240;BME280;61452;40.054;4.110;2023-07-31T23:42:56;101499.69;;;28.01;100.00
73240;BME280;61452;40.054;4.110;2023-07-31T23:47:58;101498.84;;;28.01;100.00
73240;BME280;61452;40.054;4.110;2023-07-31T23:53:02;101485.50;;;27.99;100.00
73240;BME280;61452;40.054;4.110;2023-07-31T23:58:05;101482.81;;;27.99;100.00
